Time;durP1;ratioP1;P1;durP2;ratioP2;P2;SDS_P1;SDS_P2;PMS_P1;PMS_P2;Temp;Humidity;BMP_temperature;BMP_pressure;BME280_temperature;BME280_humidity;BME280_pressure;Samples;Min_cycle;Max_cycle;Signal;HPM_P1;HPM_P2
2021/07/27 00:01:33;;;;;;;0.03;0.03;;;;;;;15.73;89.48;101097.78;10377618;28;20405;-93
2021/07/27 00:06:33;;;;;;;0.10;0.10;;;;;;;15.75;89.84;101125.31;10418472;28;20033;-92
2021/07/27 00:11:34;;;;;;;0.00;0.00;;;;;;;15.79;90.59;101128.44;10399173;28;20079;-92
2021/07/27 00:16:36;;;;;;;0.10;0.10;;;;;;;15.68;89.97;101110.97;10362198;28;20030;-92
2021/07/27 00:21:36;;;;;;;0.10;0.10;;;;;;;15.53;90.19;101102.88;10360947;28;20034;-92
2021/07/27 00:26:37;;;;;;;0.10;0.10;;;;;;;15.61;90.74;101112.69;10400873;28;20044;-92
2021/07/27 00:31:37;;;;;;;0.10;0.10;;;;;;;15.60;91.54;101097.59;10387324;28;20037;-92
2021/07/27 00:36:39;;;;;;;0.10;0.10;;;;;;;15.70;91.80;101086.59;10370798;28;20072;-91
2021/07/27 00:41:39;;;;;;;0.10;0.10;;;;;;;15.67;90.82;101071.66;10405981;28;20041;-92
2021/07/27 00:46:39;;;;;;;0.10;0.10;;;;;;;15.64;91.10;101072.03;10416807;28;20330;-91
2021/07/27 00:51:40;;;;;;;0.10;0.10;;;;;;;15.59;90.87;101066.38;10385551;28;20299;-91
2021/07/27 00:56:40;;;;;;;0.10;0.10;;;;;;;15.51;90.35;101067.31;10379363;28;20490;-92
2021/07/27 01:01:41;;;;;;;0.10;0.10;;;;;;;15.30;90.62;101065.38;10362990;28;20037;-92
2021/07/27 01:06:41;;;;;;;0.10;0.10;;;;;;;15.28;91.63;101088.88;10375015;28;20289;-91
2021/07/27 01:11:43;;;;;;;0.10;0.10;;;;;;;15.21;92.69;101077.19;10397212;28;20040;-92
2021/07/27 01:16:43;;;;;;;0.10;0.10;;;;;;;15.16;92.37;101063.53;10358411;28;20177;-93
2021/07/27 01:37:52;;;;;;;0.10;0.10;;;;;;;15.45;92.97;101072.63;10416121;28;20029;-93
2021/07/27 01:42:53;;;;;;;0.00;0.00;;;;;;;15.46;93.73;101055.47;10391570;28;20072;-92
2021/07/27 01:47:54;;;;;;;0.10;0.10;;;;;;;15.50;93.62;101059.44;10398590;28;20064;-92
2021/07/27 01:52:58;;;;;;;0.07;0.07;;;;;;;15.52;94.01;101068.16;10395550;28;20087;-92
2021/07/27 01:57:59;;;;;;;0.10;0.10;;;;;;;15.67;94.28;101076.19;10357496;28;20187;-93
2021/07/27 02:02:59;;;;;;;0.10;0.10;;;;;;;15.80;94.03;101085.31;10393134;28;20176;-93
2021/07/27 02:08:00;;;;;;;0.10;0.10;;;;;;;15.79;93.84;101080.94;10382619;28;20064;-93
2021/07/27 02:13:26;;;;;;;0.10;0.10;;;;;;;15.91;94.05;101084.00;10390736;28;20041;-92
2021/07/27 02:18:27;;;;;;;0.10;0.10;;;;;;;16.07;93.97;101083.75;10356078;28;20084;-93
2021/07/27 02:23:28;;;;;;;0.00;0.00;;;;;;;16.22;94.07;101086.41;10355869;28;20033;-93
2021/07/27 02:28:28;;;;;;;0.10;0.10;;;;;;;16.38;93.87;101101.47;10355970;28;20034;-94
2021/07/27 02:33:38;;;;;;;0.10;0.10;;;;;;;16.44;93.87;101099.88;10360473;28;20026;-92
2021/07/27 02:38:38;;;;;;;0.10;0.10;;;;;;;16.44;93.45;101097.19;10382521;28;20273;-92
2021/07/27 02:43:39;;;;;;;0.10;0.10;;;;;;;16.54;92.58;101103.06;10371810;28;20029;-93
2021/07/27 02:48:49;;;;;;;0.10;0.10;;;;;;;16.49;92.83;101102.81;10396263;28;20060;-93
2021/07/27 02:53:51;;;;;;;0.10;0.10;;;;;;;16.56;93.09;101102.91;10412490;28;20080;-94
2021/07/27 02:58:51;;;;;;;0.10;0.10;;;;;;;16.63;93.04;101123.44;10398810;28;20581;-92
2021/07/27 03:03:52;;;;;;;0.10;0.10;;;;;;;16.53;93.40;101099.56;10373848;28;20121;-92
2021/07/27 03:09:04;;;;;;;0.00;0.00;;;;;;;16.71;92.79;101117.09;10390851;28;20100;-93
2021/07/27 03:14:04;;;;;;;0.10;0.10;;;;;;;16.65;92.31;101094.50;10391311;28;20490;-93
2021/07/27 03:19:05;;;;;;;0.00;0.00;;;;;;;16.77;91.71;101100.22;10408832;28;20037;-93
2021/07/27 03:24:05;;;;;;;0.10;0.10;;;;;;;16.77;91.56;101094.03;10375417;28;20824;-93
2021/07/27 03:29:07;;;;;;;0.10;0.10;;;;;;;16.80;91.03;101094.47;10358464;28;20030;-92
2021/07/27 03:34:07;;;;;;;0.10;0.10;;;;;;;16.88;90.42;101090.81;10363065;28;20434;-93
2021/07/27 03:39:09;;;;;;;0.00;0.00;;;;;;;16.96;89.97;101094.19;10385885;28;20102;-92
2021/07/27 03:44:09;;;;;;;0.10;0.10;;;;;;;17.11;89.88;101106.72;10393719;28;20025;-93
2021/07/27 03:49:09;;;;;;;0.10;0.10;;;;;;;17.22;89.51;101111.59;10397008;28;20037;-93
2021/07/27 03:54:10;;;;;;;0.10;0.10;;;;;;;17.30;89.08;101105.19;10402887;28;20030;-89
2021/07/27 03:59:14;;;;;;;0.10;0.10;;;;;;;17.50;88.43;101118.81;10400942;28;20029;-87
2021/07/27 04:04:18;;;;;;;0.10;0.10;;;;;;;17.85;87.18;101125.84;10418682;28;20076;-87
2021/07/27 04:09:19;;;;;;;0.10;0.10;;;;;;;18.39;84.71;101124.22;10418121;28;20041;-87
2021/07/27 04:14:20;;;;;;;0.10;0.10;;;;;;;18.48;83.67;101125.69;10409204;28;20116;-87
2021/07/27 04:19:20;;;;;;;0.10;0.10;;;;;;;18.65;83.36;101125.31;10417973;28;20393;-88
2021/07/27 04:24:21;;;;;;;0.10;0.10;;;;;;;18.98;82.10;101117.25;10399932;28;20040;-88
2021/07/27 04:29:21;;;;;;;0.10;0.10;;;;;;;19.16;81.79;101136.34;10400146;28;20068;-85
2021/07/27 04:34:21;;;;;;;0.00;0.00;;;;;;;19.27;81.52;101129.50;10418836;28;20083;-88
2021/07/27 04:39:22;;;;;;;0.00;0.00;;;;;;;19.94;79.56;101134.81;10416937;28;20082;-86
2021/07/27 04:44:22;;;;;;;0.00;0.00;;;;;;;20.82;75.62;101128.72;10406128;28;20038;-88
2021/07/27 04:49:22;;;;;;;0.10;0.10;;;;;;;20.50;75.52;101126.81;10416513;28;20553;-86
2021/07/27 04:54:30;;;;;;;0.00;0.00;;;;;;;20.14;77.37;101138.25;10416664;28;20413;-88
2021/07/27 04:59:31;;;;;;;0.00;0.00;;;;;;;19.80;78.08;101134.00;10399434;28;20065;-87
2021/07/27 05:04:34;;;;;;;0.00;0.00;;;;;;;19.62;78.76;101145.47;10398518;28;20494;-88
2021/07/27 05:09:34;;;;;;;0.00;0.00;;;;;;;20.09;78.02;101133.47;10416572;28;20036;-88
2021/07/27 05:14:35;;;;;;;0.10;0.10;;;;;;;20.28;76.48;101128.22;10358447;28;20044;-88
2021/07/27 05:19:36;;;;;;;0.00;0.00;;;;;;;20.04;77.56;101145.97;10375101;28;20033;-87
2021/07/27 05:24:36;;;;;;;0.05;0.05;;;;;;;19.63;78.35;101144.41;10374283;28;20037;-88
2021/07/27 05:29:37;;;;;;;0.10;0.10;;;;;;;19.39;79.65;101133.22;10375054;28;20040;-87
2021/07/27 05:34:37;;;;;;;0.00;0.00;;;;;;;19.31;80.13;101135.31;10374927;28;20038;-88
2021/07/27 05:39:38;;;;;;;0.00;0.00;;;;;;;19.97;78.57;101146.00;10374690;28;20052;-88
2021/07/27 05:44:39;;;;;;;0.10;0.10;;;;;;;21.85;73.06;101130.94;10405111;28;20555;-87
2021/07/27 05:49:39;;;;;;;0.00;0.00;;;;;;;24.14;66.19;101140.41;10414640;28;20029;-88
2021/07/27 05:54:40;;;;;;;0.10;0.10;;;;;;;25.65;60.38;101141.66;10413056;28;20037;-86
2021/07/27 05:59:42;;;;;;;0.10;0.10;;;;;;;26.94;57.35;101139.31;10413852;28;20033;-86
2021/07/27 06:04:43;;;;;;;0.10;0.10;;;;;;;27.45;54.56;101126.84;10412184;28;20029;-86
2021/07/27 06:09:43;;;;;;;0.10;0.10;;;;;;;27.95;54.11;101124.63;10395623;28;20413;-86
2021/07/27 06:14:43;;;;;;;0.10;0.10;;;;;;;27.93;52.72;101127.66;10387077;28;20061;-86
2021/07/27 06:19:43;;;;;;;0.10;0.10;;;;;;;28.48;51.13;101128.13;10412597;28;20047;-86
2021/07/27 06:24:44;;;;;;;0.10;0.10;;;;;;;28.95;49.37;101120.75;10395160;28;20109;-86
2021/07/27 06:29:44;;;;;;;0.10;0.10;;;;;;;29.49;50.25;101126.41;10413113;28;20041;-85
2021/07/27 06:34:45;;;;;;;0.10;0.10;;;;;;;29.37;49.75;101136.06;10394772;28;20037;-84
2021/07/27 06:39:45;;;;;;;0.10;0.10;;;;;;;27.96;51.34;101138.06;10412153;28;20037;-85
2021/07/27 06:44:45;;;;;;;0.00;0.00;;;;;;;26.76;55.53;101140.50;10403923;28;20481;-85
2021/07/27 06:49:45;;;;;;;0.10;0.10;;;;;;;25.87;57.73;101147.16;10411030;28;20552;-86
2021/07/27 06:54:46;;;;;;;0.10;0.10;;;;;;;25.49;59.80;101159.72;10393895;28;20518;-86
2021/07/27 06:59:46;;;;;;;0.00;0.00;;;;;;;25.23;59.39;101159.31;10394188;28;20033;-86
2021/07/27 07:04:46;;;;;;;0.10;0.10;;;;;;;25.82;60.05;101160.72;10416844;28;20029;-86
2021/07/27 07:09:46;;;;;;;0.10;0.10;;;;;;;26.54;58.06;101166.00;10418509;28;20036;-86
2021/07/27 07:14:47;;;;;;;0.20;0.20;;;;;;;26.80;56.53;101164.34;10411440;28;20034;-86
2021/07/27 07:19:47;;;;;;;0.10;0.10;;;;;;;26.34;56.91;101168.47;10419454;28;20037;-86
2021/07/27 07:24:48;;;;;;;0.10;0.10;;;;;;;26.02;58.27;101171.91;10419399;28;20043;-86
2021/07/27 07:29:52;;;;;;;0.10;0.10;;;;;;;25.95;58.26;101169.38;10401569;28;20029;-86
2021/07/27 07:34:52;;;;;;;0.00;0.00;;;;;;;25.51;58.54;101165.72;10417686;28;20030;-86
2021/07/27 07:39:53;;;;;;;0.00;0.00;;;;;;;25.18;60.08;101169.31;10419937;28;20029;-85
2021/07/27 07:44:53;;;;;;;0.10;0.10;;;;;;;25.71;60.18;101168.78;10392539;28;20033;-86
2021/07/27 07:49:53;;;;;;;0.10;0.10;;;;;;;26.58;57.52;101169.84;10400934;28;20516;-86
2021/07/27 07:54:54;;;;;;;0.10;0.10;;;;;;;27.35;53.39;101170.56;10418226;28;20041;-86
2021/07/27 07:59:58;;;;;;;0.00;0.00;;;;;;;26.19;56.89;101169.13;10417891;28;20033;-86
2021/07/27 08:04:58;;;;;;;0.10;0.10;;;;;;;24.79;58.21;101177.38;10400716;28;20045;-85
2021/07/27 08:09:59;;;;;;;0.10;0.10;;;;;;;23.78;62.63;101180.50;10400314;28;20041;-86
2021/07/27 08:14:59;;;;;;;0.00;0.00;;;;;;;24.84;61.42;101177.44;10399124;28;20080;-86
2021/07/27 08:19:59;;;;;;;0.00;0.00;;;;;;;25.64;58.96;101170.84;10417385;28;20510;-87
2021/07/27 08:25:01;;;;;;;0.10;0.10;;;;;;;27.03;56.72;101185.03;10417330;28;20024;-87
2021/07/27 08:30:02;;;;;;;0.10;0.10;;;;;;;27.65;53.03;101185.50;10417692;28;20034;-88
2021/07/27 08:35:02;;;;;;;0.10;0.10;;;;;;;27.56;54.98;101176.16;10415187;28;20041;-86
2021/07/27 08:40:03;;;;;;;0.00;0.00;;;;;;;27.64;53.90;101189.34;10396363;28;20056;-84
2021/07/27 08:45:04;;;;;;;0.00;0.00;;;;;;;27.21;53.34;101185.75;10405912;28;20033;-86
2021/07/27 08:50:05;;;;;;;0.10;0.10;;;;;;;26.45;55.37;101191.28;10413794;28;20116;-84
2021/07/27 08:55:07;;;;;;;0.10;0.10;;;;;;;25.80;56.95;101193.69;10415225;28;20033;-85
2021/07/27 09:00:10;;;;;;;0.00;0.00;;;;;;;25.73;57.76;101195.78;10416388;28;20036;-86
2021/07/27 09:05:12;;;;;;;0.10;0.10;;;;;;;25.57;57.83;101200.22;10415693;28;20030;-86
2021/07/27 09:10:18;;;;;;;0.10;0.10;;;;;;;25.74;58.50;101205.59;10415788;28;20037;-86
2021/07/27 09:15:20;;;;;;;0.10;0.10;;;;;;;25.09;58.41;101201.59;10406880;28;20445;-86
2021/07/27 09:20:23;;;;;;;;;;;;;;;24.25;61.13;101210.31;10416245;28;20029;-86
2021/07/27 09:25:26;;;;;;;0.10;0.10;;;;;;;23.30;64.72;101202.44;10415118;28;19964;-86
2021/07/27 09:30:26;;;;;;;0.00;0.00;;;;;;;22.94;67.11;101193.38;10413990;28;20457;-86
2021/07/27 09:35:29;;;;;;;0.10;0.10;;;;;;;23.54;67.33;101203.31;10397348;28;20029;-86
2021/07/27 09:40:30;;;;;;;0.00;0.00;;;;;;;24.59;64.88;101188.72;10414447;28;20051;-87
2021/07/27 09:45:33;;;;;;;0.10;0.10;;;;;;;25.78;60.01;101187.69;10396502;28;20032;-85
2021/07/27 09:50:34;;;;;;;0.10;0.10;;;;;;;25.65;58.53;101191.56;10396342;28;20037;-86
2021/07/27 09:55:36;;;;;;;0.10;0.10;;;;;;;25.26;60.65;101191.53;10414685;28;20072;-86
2021/07/27 10:01:00;;;;;;;0.10;0.10;;;;;;;24.67;61.86;101207.38;10412607;28;20033;-84
2021/07/27 10:06:05;;;;;;;0.00;0.00;;;;;;;24.33;62.73;101199.06;10413915;28;20036;-85
2021/07/27 10:11:13;;;;;;;0.10;0.10;;;;;;;24.81;62.13;101195.13;10409297;28;20037;-86
2021/07/27 10:16:24;;;;;;;0.00;0.00;;;;;;;25.49;58.77;101192.44;10408953;28;20087;-86
2021/07/27 10:21:26;;;;;;;0.05;0.05;;;;;;;25.92;56.52;101199.09;10395143;28;20033;-87
2021/07/27 10:26:32;;;;;;;0.10;0.10;;;;;;;25.90;56.56;101180.22;10411642;28;20188;-86
2021/07/27 10:31:44;;;;;;;0.00;0.00;;;;;;;26.02;55.73;101203.84;10411231;28;20044;-86
2021/07/27 10:36:48;;;;;;;0.10;0.10;;;;;;;26.18;58.87;101195.59;10410736;28;20038;-86
2021/07/27 10:41:50;;;;;;;0.00;0.00;;;;;;;26.28;56.12;101192.16;10403534;28;20176;-84
2021/07/27 10:46:52;;;;;;;0.05;0.05;;;;;;;25.55;58.34;101205.06;10411433;28;20068;-85
2021/07/27 10:51:59;;;;;;;0.10;0.10;;;;;;;24.82;59.68;101212.28;10412207;28;20040;-84
2021/07/27 10:57:02;;;;;;;0.10;0.10;;;;;;;24.11;64.00;101212.47;10394798;28;20092;-86
2021/07/27 11:02:09;;;;;;;0.00;0.00;;;;;;;23.62;63.98;101219.25;10412054;28;20489;-86
2021/07/27 11:07:13;;;;;;;0.10;0.10;;;;;;;23.54;65.59;101222.34;10394075;28;20479;-87
2021/07/27 11:12:27;;;;;;;0.10;0.10;;;;;;;23.98;66.45;101222.81;10402074;28;20041;-86
2021/07/27 11:17:27;;;;;;;0.00;0.00;;;;;;;24.51;61.99;101202.72;10408701;28;20108;-83
2021/07/27 11:22:28;;;;;;;0.00;0.00;;;;;;;25.20;62.83;101210.78;10391235;28;20120;-85
2021/07/27 11:27:32;;;;;;;0.10;0.10;;;;;;;25.93;57.71;101198.81;10392450;28;20212;-86
2021/07/27 11:32:47;;;;;;;0.10;0.10;;;;;;;26.41;57.73;101190.94;10413605;28;20029;-85
2021/07/27 11:38:00;;;;;;;0.10;0.10;;;;;;;26.59;56.33;101185.19;10411420;28;20520;-86
2021/07/27 11:43:09;;;;;;;0.10;0.10;;;;;;;25.99;56.38;101191.53;10403133;28;20036;-88
2021/07/27 11:48:11;;;;;;;0.00;0.00;;;;;;;25.12;59.33;101198.34;10410619;28;20030;-87
2021/07/27 11:53:23;;;;;;;0.10;0.10;;;;;;;24.71;64.39;101214.00;10418642;28;20040;-86
2021/07/27 11:58:28;;;;;;;0.00;0.00;;;;;;;24.49;65.61;101199.38;10417508;28;20099;-86
2021/07/27 12:03:28;;;;;;;0.10;0.10;;;;;;;24.39;65.28;101200.81;10398657;28;20029;-86
2021/07/27 12:08:28;;;;;;;0.08;0.08;;;;;;;24.78;64.47;101201.06;10416773;28;20453;-87
2021/07/27 12:13:29;;;;;;;0.00;0.00;;;;;;;25.57;63.36;101194.75;10383244;28;20057;-86
2021/07/27 12:18:30;;;;;;;0.10;0.10;;;;;;;25.89;61.55;101186.78;10359185;28;20033;-86
2021/07/27 12:23:30;;;;;;;0.00;0.00;;;;;;;26.04;60.83;101177.97;10376526;28;20026;-86
2021/07/27 12:28:31;;;;;;;0.10;0.10;;;;;;;26.02;60.21;101177.38;10375022;28;20030;-86
2021/07/27 12:33:31;;;;;;;0.00;0.00;;;;;;;25.85;61.15;101187.53;10358271;28;20038;-86
2021/07/27 12:38:34;;;;;;;0.10;0.10;;;;;;;25.97;61.58;101163.66;10359826;28;20060;-86
2021/07/27 12:43:35;;;;;;;0.00;0.00;;;;;;;26.01;60.64;101170.28;10399433;28;20068;-87
2021/07/27 12:48:35;;;;;;;0.10;0.10;;;;;;;26.14;58.65;101177.25;10416769;28;20524;-86
2021/07/27 12:53:36;;;;;;;0.10;0.10;;;;;;;26.12;60.12;101169.31;10416369;28;20375;-86
2021/07/27 12:58:36;;;;;;;0.10;0.10;;;;;;;26.32;58.45;101184.28;10398172;28;20116;-86
2021/07/27 13:03:36;;;;;;;0.10;0.10;;;;;;;26.13;59.22;101173.69;10415407;28;20037;-87
2021/07/27 13:08:39;;;;;;;0.10;0.10;;;;;;;26.27;55.35;101168.69;10414084;28;20045;-86
2021/07/27 13:13:39;;;;;;;0.10;0.10;;;;;;;26.50;55.98;101155.81;10406428;28;20030;-86
2021/07/27 13:18:40;;;;;;;0.00;0.00;;;;;;;26.78;55.04;101154.75;10397699;28;20037;-86
2021/07/27 13:23:41;;;;;;;0.10;0.10;;;;;;;26.82;54.43;101147.66;10414874;28;20026;-86
2021/07/27 13:28:41;;;;;;;0.00;0.00;;;;;;;26.66;53.63;101145.91;10414109;28;20029;-86
2021/07/27 13:33:43;;;;;;;0.10;0.10;;;;;;;26.55;52.89;101143.03;10412329;28;20033;-95
2021/07/27 13:38:44;;;;;;;0.10;0.10;;;;;;;26.70;55.22;101145.09;10419134;28;20046;-93
2021/07/27 13:43:44;;;;;;;0.10;0.10;;;;;;;26.55;53.97;101145.78;10392336;28;20025;-93
2021/07/27 13:48:44;;;;;;;0.10;0.10;;;;;;;26.51;51.97;101131.00;10399308;28;20056;-93
2021/07/27 13:53:45;;;;;;;0.10;0.10;;;;;;;26.62;51.57;101127.28;10403498;28;20073;-92
2021/07/27 13:58:45;;;;;;;0.10;0.10;;;;;;;26.80;54.89;101125.25;10405487;28;20497;-92
2021/07/27 14:03:45;;;;;;;0.10;0.10;;;;;;;26.84;51.67;101129.09;10392716;28;20056;-93
2021/07/27 14:08:46;;;;;;;0.10;0.10;;;;;;;26.79;54.36;101118.97;10428956;28;20071;-93
2021/07/27 14:13:46;;;;;;;0.00;0.00;;;;;;;26.51;52.32;101117.34;10392411;28;20026;-92
2021/07/27 14:18:46;;;;;;;0.00;0.00;;;;;;;26.13;54.72;101110.09;10405401;28;20572;-92
2021/07/27 14:23:47;;;;;;;0.10;0.10;;;;;;;26.14;53.26;101119.91;10396156;28;20380;-91
2021/07/27 14:28:48;;;;;;;0.10;0.10;;;;;;;26.03;53.60;101110.78;10378721;28;20025;-89
2021/07/27 14:33:48;;;;;;;0.10;0.10;;;;;;;25.79;55.22;101103.91;10409120;28;20029;-91
2021/07/27 14:38:51;;;;;;;0.03;0.03;;;;;;;25.68;52.98;101086.59;10414712;28;20046;-93
2021/07/27 14:43:52;;;;;;;0.00;0.00;;;;;;;25.68;53.45;101087.41;10399162;28;20040;-93
2021/07/27 14:48:54;;;;;;;0.10;0.10;;;;;;;25.50;55.27;101077.63;10387187;28;20446;-91
2021/07/27 14:53:54;;;;;;;0.10;0.10;;;;;;;25.28;52.71;101104.88;10402591;28;20025;-92
2021/07/27 14:58:55;;;;;;;0.10;0.10;;;;;;;25.36;52.55;101097.34;10404388;28;20030;-93
2021/07/27 15:03:55;;;;;;;0.00;0.00;;;;;;;25.71;53.93;101097.00;10398966;28;20064;-92
2021/07/27 15:08:56;;;;;;;0.10;0.10;;;;;;;25.79;51.34;101082.09;10386256;28;20029;-91
2021/07/27 15:13:56;;;;;;;0.10;0.10;;;;;;;25.88;52.00;101077.88;10382729;28;20622;-93
2021/07/27 15:18:57;;;;;;;0.00;0.00;;;;;;;26.12;51.56;101087.44;10379562;28;20045;-94
2021/07/27 15:23:57;;;;;;;0.10;0.10;;;;;;;26.03;50.35;101072.56;10398495;28;20026;-94
2021/07/27 15:29:01;;;;;;;0.10;0.10;;;;;;;26.07;49.62;101078.38;10398413;28;20100;-93
2021/07/27 15:34:01;;;;;;;0.10;0.10;;;;;;;26.13;50.90;101080.88;10405095;28;20057;-93
2021/07/27 15:39:01;;;;;;;0.10;0.10;;;;;;;26.18;49.48;101075.47;10395241;28;20061;-92
2021/07/27 15:44:02;;;;;;;0.10;0.10;;;;;;;26.18;47.77;101097.31;10410636;28;20037;-93
2021/07/27 15:49:02;;;;;;;0.10;0.10;;;;;;;25.92;49.78;101081.75;10376068;28;20041;-93
2021/07/27 15:54:03;;;;;;;0.00;0.00;;;;;;;25.65;50.22;101090.66;10389483;28;20033;-94
2021/07/27 15:59:03;;;;;;;0.00;0.00;;;;;;;25.53;50.99;101079.84;10392738;28;20410;-93
2021/07/27 16:04:04;;;;;;;0.10;0.10;;;;;;;25.59;52.97;101083.47;10391186;28;20057;-93
2021/07/27 16:09:04;;;;;;;0.10;0.10;;;;;;;25.49;51.55;101086.09;10408169;28;20490;-93
2021/07/27 16:14:04;;;;;;;0.00;0.00;;;;;;;25.49;52.14;101081.44;10415971;28;20033;-93
2021/07/27 16:19:05;;;;;;;0.10;0.10;;;;;;;25.50;51.50;101087.72;10388497;28;20034;-93
2021/07/27 16:24:06;;;;;;;0.00;0.00;;;;;;;25.41;52.21;101076.44;10418725;28;20045;-92
2021/07/27 16:29:06;;;;;;;0.00;0.00;;;;;;;25.33;51.79;101082.31;10399125;28;20029;-94
2021/07/27 16:34:06;;;;;;;0.00;0.00;;;;;;;25.29;52.82;101084.72;10394172;28;20048;-93
2021/07/27 16:39:08;;;;;;;0.03;0.03;;;;;;;25.24;52.31;101065.56;10389731;28;20095;-93
2021/07/27 16:44:09;;;;;;;0.10;0.10;;;;;;;25.39;51.49;101078.56;10393968;28;20025;-94
2021/07/27 16:49:09;;;;;;;0.00;0.00;;;;;;;25.26;51.52;101076.22;10401751;28;20063;-94
2021/07/27 16:54:09;;;;;;;0.10;0.10;;;;;;;25.15;53.72;101072.50;10406412;28;20151;-93
2021/07/27 16:59:10;;;;;;;0.10;0.10;;;;;;;24.92;52.56;101069.94;10394489;28;20500;-93
2021/07/27 17:04:10;;;;;;;0.10;0.10;;;;;;;24.55;52.97;101059.53;10410983;28;20116;-93
2021/07/27 17:09:12;;;;;;;0.10;0.10;;;;;;;24.27;54.42;101054.94;10406345;28;20263;-93
2021/07/27 17:14:12;;;;;;;0.00;0.00;;;;;;;24.10;55.04;101058.44;10379679;28;20034;-93
2021/07/27 17:19:12;;;;;;;0.10;0.10;;;;;;;23.88;55.08;101049.31;10378594;28;20067;-93
2021/07/27 17:24:13;;;;;;;0.10;0.10;;;;;;;23.84;56.80;101048.16;10412366;28;20036;-93
2021/07/27 17:29:21;;;;;;;0.10;0.10;;;;;;;23.70;57.42;101050.31;10405297;28;20118;-92
2021/07/27 17:34:23;;;;;;;0.10;0.10;;;;;;;23.60;57.47;101034.59;10374553;28;20125;-93
2021/07/27 17:39:23;;;;;;;0.10;0.10;;;;;;;23.45;58.60;101040.53;10404832;28;20026;-92
2021/07/27 17:44:23;;;;;;;0.10;0.10;;;;;;;23.32;59.13;101032.63;10393418;28;20040;-93
2021/07/27 17:49:24;;;;;;;0.10;0.10;;;;;;;23.11;60.42;101027.81;10419572;28;20037;-93
2021/07/27 17:54:24;;;;;;;0.00;0.00;;;;;;;22.98;62.14;101040.59;10417193;28;20040;-93
2021/07/27 17:59:25;;;;;;;0.00;0.00;;;;;;;22.85;62.25;101048.09;10392367;28;20173;-93
2021/07/27 18:04:25;;;;;;;0.00;0.00;;;;;;;22.68;63.04;101056.13;10406975;28;20018;-93
2021/07/27 18:09:25;;;;;;;0.10;0.10;;;;;;;22.46;64.48;101053.97;10383940;28;20037;-93
2021/07/27 18:14:26;;;;;;;0.10;0.10;;;;;;;22.38;65.07;101055.09;10385523;28;20026;-93
2021/07/27 18:19:26;;;;;;;0.10;0.10;;;;;;;22.25;66.06;101054.47;10387452;28;20030;-92
2021/07/27 18:24:27;;;;;;;0.10;0.10;;;;;;;22.08;65.48;101055.09;10417531;28;20052;-92
2021/07/27 18:29:27;;;;;;;0.10;0.10;;;;;;;21.94;65.27;101059.03;10395247;28;20033;-92
2021/07/27 18:34:27;;;;;;;0.10;0.10;;;;;;;21.84;66.24;101056.03;10397701;28;20119;-93
2021/07/27 18:39:28;;;;;;;0.10;0.10;;;;;;;21.82;66.04;101074.44;10384472;28;20040;-93
2021/07/27 18:44:28;;;;;;;0.10;0.10;;;;;;;21.57;66.58;101048.22;10385601;28;20042;-86
2021/07/27 18:49:29;;;;;;;0.00;0.00;;;;;;;21.54;67.04;101066.84;10354964;28;20343;-90
2021/07/27 18:54:32;;;;;;;0.10;0.10;;;;;;;21.35;67.69;101061.38;10394391;28;20045;-91
2021/07/27 18:59:32;;;;;;;;;;;;;;;21.31;68.36;101079.13;10407941;28;20021;-91
2021/07/27 19:04:34;;;;;;;0.00;0.00;;;;;;;21.16;68.32;101090.31;10390680;28;19909;-90
2021/07/27 19:09:34;;;;;;;0.10;0.10;;;;;;;21.01;67.89;101090.66;10396959;28;20056;-91
2021/07/27 19:14:38;;;;;;;0.10;0.10;;;;;;;20.87;68.39;101093.72;10384400;28;20037;-92
2021/07/27 19:19:40;;;;;;;0.00;0.00;;;;;;;20.60;68.16;101085.78;10396691;28;20084;-91
2021/07/27 19:24:41;;;;;;;0.10;0.10;;;;;;;20.48;68.47;101088.34;10393701;28;20113;-90
2021/07/27 19:29:42;;;;;;;0.10;0.10;;;;;;;20.39;69.18;101095.06;10405230;28;20116;-90
2021/07/27 19:34:42;;;;;;;0.00;0.00;;;;;;;20.19;69.58;101100.59;10403765;28;20116;-91
2021/07/27 19:39:44;;;;;;;0.10;0.10;;;;;;;20.08;70.08;101103.97;10399109;28;20033;-91
2021/07/27 19:44:54;;;;;;;0.10;0.10;;;;;;;20.00;71.05;101136.66;10404961;28;20026;-90
2021/07/27 19:49:54;;;;;;;0.10;0.10;;;;;;;19.80;72.15;101126.72;10400236;28;20030;-90
2021/07/27 19:54:55;;;;;;;0.00;0.00;;;;;;;19.63;72.69;101129.06;10399748;28;20034;-91
2021/07/27 19:59:55;;;;;;;0.10;0.10;;;;;;;19.47;73.37;101134.06;10409063;28;20030;-87
2021/07/27 20:04:55;;;;;;;0.10;0.10;;;;;;;19.34;74.46;101135.72;10414306;28;20051;-89
2021/07/27 20:09:55;;;;;;;0.10;0.10;;;;;;;19.26;75.00;101151.31;10378087;28;20025;-90
2021/07/27 20:14:56;;;;;;;0.00;0.00;;;;;;;19.16;75.03;101149.88;10393307;28;20025;-90
2021/07/27 20:19:56;;;;;;;0.00;0.00;;;;;;;19.01;73.86;101133.03;10410160;28;20048;-86
2021/07/27 20:24:57;;;;;;;0.00;0.00;;;;;;;19.06;73.58;101154.03;10416072;28;20489;-85
2021/07/27 20:29:57;;;;;;;0.03;0.03;;;;;;;19.01;73.58;101154.66;10417757;28;20030;-86
2021/07/27 20:34:58;;;;;;;0.10;0.10;;;;;;;18.93;72.91;101152.97;10417049;28;20030;-86
2021/07/27 20:39:58;;;;;;;0.00;0.00;;;;;;;18.97;72.46;101153.41;10398983;28;20033;-86
2021/07/27 20:44:58;;;;;;;0.10;0.10;;;;;;;18.93;73.68;101149.44;10409114;28;20033;-86
2021/07/27 20:49:59;;;;;;;0.10;0.10;;;;;;;18.95;74.13;101156.28;10427269;22;20049;-62
2021/07/27 20:54:59;;;;;;;0.10;0.10;;;;;;;18.94;74.34;101156.53;10479961;28;20082;-62
2021/07/27 20:59:59;;;;;;;0.00;0.00;;;;;;;18.93;74.31;101161.06;10496776;28;20115;-62
2021/07/27 21:04:59;;;;;;;0.10;0.10;;;;;;;18.91;74.28;101163.16;10497137;28;20021;-62
2021/07/27 21:10:00;;;;;;;0.10;0.10;;;;;;;18.89;74.29;101156.31;10496360;28;20267;-62
2021/07/27 21:15:01;;;;;;;0.10;0.10;;;;;;;18.84;74.51;101158.78;10495903;28;20032;-62
2021/07/27 21:20:01;;;;;;;0.10;0.10;;;;;;;18.81;74.08;101151.91;10495897;28;20395;-60
2021/07/27 21:25:01;;;;;;;0.10;0.10;;;;;;;18.77;74.53;101154.19;10495438;28;20035;-60
2021/07/27 21:30:02;;;;;;;0.10;0.10;;;;;;;18.75;74.35;101163.53;10494187;28;20506;-59
2021/07/27 21:35:04;;;;;;;0.00;0.00;;;;;;;18.72;75.29;101156.66;10495062;28;20029;-62
2021/07/27 21:40:05;;;;;;;0.10;0.10;;;;;;;18.68;75.41;101151.88;10494500;28;20591;-62
2021/07/27 21:45:05;;;;;;;0.00;0.00;;;;;;;18.62;75.15;101155.41;10494412;28;20115;-61
2021/07/27 21:50:06;;;;;;;0.10;0.10;;;;;;;18.58;75.74;101151.44;10494368;28;20114;-62
2021/07/27 21:55:07;;;;;;;0.10;0.10;;;;;;;18.53;76.15;101143.97;10494198;28;20035;-62
2021/07/27 22:00:10;;;;;;;0.10;0.10;;;;;;;18.48;76.84;101155.34;10486841;28;20043;-62
2021/07/27 22:05:12;;;;;;;0.10;0.10;;;;;;;18.44;77.22;101151.41;10452614;28;20102;-62
2021/07/27 22:10:12;;;;;;;0.00;0.00;;;;;;;18.36;77.77;101148.91;10450978;28;20396;-62
2021/07/27 22:15:13;;;;;;;0.10;0.10;;;;;;;18.30;78.73;101144.31;10452460;28;20036;-61
2021/07/27 22:20:13;;;;;;;0.10;0.10;;;;;;;18.23;79.09;101148.84;10452948;28;20484;-62
2021/07/27 22:25:13;;;;;;;0.00;0.00;;;;;;;18.18;79.72;101145.91;10450953;28;20491;-62
2021/07/27 22:30:14;;;;;;;0.00;0.00;;;;;;;18.13;79.68;101137.63;10451983;28;20444;-61
2021/07/27 22:35:14;;;;;;;0.00;0.00;;;;;;;18.08;79.68;101139.03;10451714;28;20396;-62
2021/07/27 22:40:15;;;;;;;0.00;0.00;;;;;;;18.05;80.28;101142.13;10452246;28;20033;-61
2021/07/27 22:45:16;;;;;;;0.10;0.10;;;;;;;18.03;80.64;101148.75;10452123;28;20036;-62
2021/07/27 22:50:16;;;;;;;0.10;0.10;;;;;;;17.96;81.30;101148.72;10451285;28;20441;-62
2021/07/27 22:55:16;;;;;;;0.10;0.10;;;;;;;17.89;81.34;101142.47;10451783;28;20286;-62
2021/07/27 23:00:17;;;;;;;0.10;0.10;;;;;;;17.84;81.55;101147.63;10451778;28;20041;-62
2021/07/27 23:05:18;;;;;;;0.10;0.10;;;;;;;17.77;81.92;101139.50;10451180;28;20029;-62
2021/07/27 23:10:18;;;;;;;0.10;0.10;;;;;;;17.73;82.29;101142.75;10450989;28;20032;-63
2021/07/27 23:15:19;;;;;;;0.10;0.10;;;;;;;17.71;82.76;101144.81;10450866;28;20063;-62
2021/07/27 23:20:19;;;;;;;0.00;0.00;;;;;;;17.68;82.52;101147.91;10450915;28;20045;-63